createdAt,value
2022-08-25T00:00:54.837Z,1.7993311036789297
2022-08-25T00:07:18.524Z,1.5551839464882944
2022-08-25T00:13:40.091Z,3.1471571906354514
2022-08-25T00:20:01.315Z,1.5217391304347827
2022-08-25T00:26:22.364Z,1.7692307692307692
2022-08-25T00:32:43.472Z,2.678929765886288
2022-08-25T00:39:11.719Z,1.3612040133779264
2022-08-25T00:45:32.406Z,0.919732441471572
2022-08-25T00:51:52.727Z,1.8528428093645486
2022-08-25T00:58:13.324Z,1.451505016722408
2022-08-25T01:04:34.625Z,1.334448160535117
2022-08-25T01:11:16.353Z,2.5852842809364547
2022-08-25T01:17:36.955Z,1.1270903010033444
2022-08-25T01:24:04.892Z,1.294314381270903
2022-08-25T01:30:25.432Z,1.2876254180602007
2022-08-25T01:36:45.958Z,2.080267558528428
2022-08-25T01:43:06.341Z,1.1471571906354514
2022-08-25T01:49:27.195Z,1.471571906354515
2022-08-25T01:55:48.554Z,3.6187290969899664
2022-08-25T02:02:09.585Z,2.17056856187291
2022-08-25T02:12:28.329Z,1.5150501672240804
2022-08-25T02:18:49.527Z,2.0635451505016724
2022-08-25T02:25:10.637Z,2.37123745819398
2022-08-25T02:31:43.546Z,2.2040133779264215
2022-08-25T02:38:04.771Z,1.8193979933110367
2022-08-25T02:44:25.641Z,2.668896321070234
2022-08-25T02:50:46.583Z,2.6354515050167224
2022-08-25T03:03:16.346Z,2.4214046822742477
2022-08-25T03:09:37.285Z,2.0535117056856187
2022-08-25T03:21:16.245Z,3.1471571906354514
2022-08-25T03:27:43.019Z,2.759197324414716
2022-08-25T03:37:43.276Z,3.4046822742474916
2022-08-25T03:51:58.325Z,2.632107023411371
2022-08-25T04:03:53.263Z,3.0434782608695654
2022-08-25T04:10:14.074Z,2.8327759197324416
2022-08-25T04:16:35.478Z,3.3612040133779266
2022-08-25T04:23:00.504Z,2.702341137123746
2022-08-25T04:29:24.396Z,3.080267558528428
2022-08-25T04:40:37.597Z,2.9732441471571907
2022-08-25T04:46:58.821Z,3.759197324414716
2022-08-25T04:53:19.596Z,4.491638795986622
2022-08-25T04:59:40.449Z,3.4013377926421406
2022-08-25T05:06:00.942Z,3.5785953177257523
2022-08-25T05:12:22.003Z,4.357859531772576
2022-08-25T05:18:43.142Z,4.983277591973244
2022-08-25T05:25:13.782Z,4.3244147157190636
2022-08-25T05:31:39.569Z,5.79933110367893
2022-08-25T05:47:06.867Z,5.34113712374582
2022-08-25T05:58:39.139Z,5.280936454849498
2022-08-25T06:05:01.507Z,5.080267558528428
2022-08-25T06:11:22.218Z,6.6923076923076925
2022-08-25T06:17:43.792Z,5.147157190635451
2022-08-25T06:27:15.011Z,5.39799331103679
2022-08-25T06:33:36.363Z,5.297658862876254
2022-08-25T06:39:57.184Z,4.344481605351171
2022-08-25T06:46:52.092Z,4.1237458193979935
2022-08-25T06:53:13.799Z,5.635451505016722
2022-08-25T06:59:35.659Z,4.461538461538462
2022-08-25T07:05:57.080Z,5.090301003344481
2022-08-25T07:12:19.345Z,5.474916387959866
2022-08-25T07:21:21.819Z,5.60200668896321
2022-08-25T07:27:47.169Z,4.712374581939799
2022-08-25T07:37:52.324Z,5.491638795986622
2022-08-25T07:46:35.753Z,3.682274247491639
2022-08-25T07:52:57.613Z,5.444816053511706
2022-08-25T08:00:47.152Z,6.6923076923076925
2022-08-25T08:07:12.113Z,6.555183946488294
2022-08-25T08:37:36.462Z,2.7525083612040135
2022-08-25T08:45:44.018Z,3.060200668896321
2022-08-25T08:52:05.411Z,4.849498327759197
2022-08-25T08:58:26.987Z,5.969899665551839
2022-08-25T09:04:48.303Z,3.591973244147157
2022-08-25T09:11:10.470Z,4.214046822742475
2022-08-25T09:18:39.001Z,4.0
2022-08-25T09:18:51.259Z,2.0
2022-08-25T09:18:54.727Z,2.0
2022-08-25T09:18:57.271Z,0.0
2022-08-25T09:18:59.303Z,0.0
2022-08-25T09:19:01.308Z,0.0
2022-08-25T09:19:03.325Z,2.0
2022-08-25T09:19:05.293Z,2.0
2022-08-25T09:19:08.743Z,4.0
2022-08-25T09:19:59.354Z,21.0
2022-08-25T09:20:02.586Z,16.0
2022-08-25T09:20:06.166Z,10.0
2022-08-25T09:20:30.108Z,8.5
2022-08-25T09:23:20.964Z,4.451505016722408
2022-08-25T09:29:44.199Z,4.712374581939799
2022-08-25T09:42:23.670Z,3.431438127090301
2022-08-25T09:48:48.520Z,4.270903010033445
2022-08-25T10:01:02.877Z,3.05685618729097
2022-08-25T10:07:26.351Z,3.05685618729097
2022-08-25T10:13:49.193Z,1.9464882943143813
2022-08-25T10:20:13.596Z,1.8896321070234114
2022-08-25T10:32:53.601Z,1.725752508361204
2022-08-25T10:51:35.683Z,2.7123745819397995
2022-08-25T10:58:00.225Z,1.7892976588628762
2022-08-25T11:08:28.325Z,4.096989966555184
2022-08-25T11:14:51.185Z,1.8561872909698998
2022-08-25T11:21:14.615Z,1.9732441471571907
2022-08-25T11:27:37.889Z,1.62876254180602
2022-08-25T11:39:34.411Z,2.234113712374582
2022-08-25T11:45:55.411Z,2.8528428093645486
2022-08-25T11:54:55.589Z,1.8160535117056855
2022-08-25T12:01:19.808Z,2.9364548494983276
2022-08-25T12:07:41.811Z,1.7525083612040133
2022-08-25T12:14:03.244Z,2.230769230769231
2022-08-25T12:22:04.291Z,1.7224080267558528
2022-08-25T12:28:25.476Z,2.511705685618729
2022-08-25T12:39:09.704Z,1.9498327759197325
2022-08-25T12:45:30.438Z,1.959866220735786
2022-08-25T12:51:51.989Z,2.4180602006688963
2022-08-25T13:06:22.749Z,2.230769230769231
2022-08-25T13:12:44.067Z,2.42809364548495
2022-08-25T13:20:37.933Z,2.74247491638796
2022-08-25T13:26:58.691Z,1.6153846153846154
2022-08-25T13:33:20.501Z,2.2876254180602005
2022-08-25T13:39:55.866Z,1.7424749163879598
2022-08-25T13:52:46.731Z,2.8561872909698995
2022-08-25T13:59:09.891Z,2.2274247491638794
2022-08-25T14:05:30.553Z,1.7123745819397993
2022-08-25T14:11:53.759Z,2.0334448160535117
2022-08-25T14:18:15.458Z,3.1839464882943145
2022-08-25T14:24:40.885Z,2.862876254180602
2022-08-25T14:31:05.306Z,2.311036789297659
2022-08-25T14:50:41.026Z,1.394648829431438
2022-08-25T14:57:10.479Z,3.4615384615384617
2022-08-25T15:03:33.689Z,1.879598662207358
2022-08-25T15:09:58.268Z,2.4214046822742477
2022-08-25T15:16:23.961Z,2.745819397993311
2022-08-25T15:22:57.008Z,2.5652173913043477
2022-08-25T15:30:04.242Z,2.588628762541806
2022-08-25T15:36:30.965Z,2.137123745819398
2022-08-25T15:45:46.859Z,2.0936454849498327
2022-08-25T15:52:09.976Z,3.020066889632107
2022-08-25T15:58:31.292Z,2.5551839464882944
2022-08-25T16:04:53.292Z,3.8929765886287626
2022-08-25T16:17:36.831Z,2.9531772575250836
2022-08-25T16:30:45.338Z,3.3846153846153846
2022-08-25T16:37:14.655Z,2.903010033444816
2022-08-25T16:57:59.835Z,4.501672240802676
2022-08-25T17:05:14.192Z,2.274247491638796
2022-08-25T17:12:26.579Z,3.57190635451505
2022-08-25T17:18:48.387Z,2.9531772575250836
2022-08-25T17:25:18.794Z,4.444816053511706
2022-08-25T17:31:40.651Z,3.1672240802675584
2022-08-25T17:42:30.690Z,2.7759197324414715
2022-08-25T17:48:53.482Z,2.431438127090301
2022-08-25T17:55:16.328Z,1.7290969899665551
2022-08-25T18:07:19.027Z,2.9063545150501673
2022-08-25T18:13:42.034Z,2.9732441471571907
2022-08-25T18:20:04.068Z,3.3277591973244145
2022-08-25T18:31:28.017Z,3.190635451505017
2022-08-25T18:37:53.812Z,3.3545150501672243
2022-08-25T18:49:45.903Z,4.518394648829432
2022-08-25T18:56:45.879Z,4.327759197324415
2022-08-25T19:03:10.749Z,3.7357859531772575
2022-08-25T19:13:32.800Z,3.939799331103679
2022-08-25T19:20:02.242Z,3.4983277591973243
2022-08-25T19:26:34.285Z,3.7558528428093645
2022-08-25T19:33:02.013Z,3.8929765886287626
2022-08-25T19:39:52.994Z,3.260869565217391
2022-08-25T19:46:40.181Z,4.230769230769231
2022-08-25T19:53:35.396Z,4.411371237458194
2022-08-25T20:07:30.244Z,3.4849498327759196
2022-08-25T20:14:12.547Z,2.5183946488294313
2022-08-25T20:21:04.814Z,2.311036789297659
2022-08-25T20:37:41.763Z,2.4949832775919734
2022-08-25T20:44:24.488Z,2.5050167224080266
2022-08-25T20:54:50.470Z,2.7157190635451505
2022-08-25T21:08:45.195Z,2.9933110367892977
2022-08-25T21:15:18.180Z,2.150501672240803
2022-08-25T21:22:17.620Z,2.859531772575251
2022-08-25T21:28:47.583Z,3.82943143812709
2022-08-25T21:52:07.718Z,3.391304347826087
2022-08-25T21:58:28.925Z,4.117056856187291
2022-08-25T22:04:50.258Z,3.6053511705685617
2022-08-25T22:11:11.232Z,4.20066889632107
2022-08-25T22:21:42.105Z,3.6622073578595318
2022-08-25T22:28:14.446Z,4.117056856187291
2022-08-25T22:34:40.099Z,4.083612040133779
2022-08-25T22:41:01.860Z,3.311036789297659
2022-08-25T22:49:17.775Z,3.62876254180602
2022-08-25T22:55:38.911Z,3.9966555183946486
2022-08-25T23:02:00.462Z,4.973244147157191
2022-08-25T23:08:27.112Z,4.722408026755853
2022-08-25T23:19:51.238Z,5.809364548494983
2022-08-25T23:26:13.927Z,4.040133779264214
2022-08-25T23:40:09.736Z,6.39799331103679
2022-08-25T23:46:31.667Z,5.1404682274247495
2022-08-25T23:56:24.119Z,6.501672240802676
